createdAt,value
2016-05-16T00:00:51.240Z,0
2016-05-16T00:01:51.368Z,0
2016-05-16T00:02:51.371Z,0
2016-05-16T00:03:51.045Z,0
2016-05-16T00:04:51.345Z,0
2016-05-16T00:05:51.316Z,0
2016-05-16T00:06:51.132Z,0
2016-05-16T00:07:51.290Z,0
2016-05-16T00:08:51.309Z,0
2016-05-16T00:09:51.264Z,0
2016-05-16T00:10:51.252Z,0
2016-05-16T00:11:51.222Z,0
2016-05-16T00:12:51.053Z,0
2016-05-16T00:13:51.198Z,0
2016-05-16T00:14:51.200Z,0
2016-05-16T00:15:51.016Z,0
2016-05-16T00:16:51.002Z,0
2016-05-16T00:17:51.130Z,0
2016-05-16T00:18:51.116Z,0
2016-05-16T00:19:51.244Z,0
2016-05-16T00:20:50.950Z,0
2016-05-16T00:21:50.766Z,0
2016-05-16T00:22:51.065Z,0
2016-05-16T00:23:50.912Z,0
2016-05-16T00:24:51.040Z,0
2016-05-16T00:25:50.855Z,0
2016-05-16T00:26:50.998Z,0
2016-05-16T00:27:50.985Z,0
2016-05-16T00:28:50.816Z,0
2016-05-16T00:29:50.959Z,0
2016-05-16T00:30:50.946Z,0
2016-05-16T00:31:50.620Z,0
2016-05-16T00:32:50.624Z,0
2016-05-16T00:33:50.595Z,0
2016-05-16T00:34:51.051Z,0
2016-05-16T00:35:50.756Z,0
2016-05-16T00:36:50.697Z,0
2016-05-16T00:37:50.840Z,0
2016-05-16T00:38:50.827Z,0
2016-05-16T00:39:50.658Z,0
2016-05-16T00:40:50.645Z,0
2016-05-16T00:41:50.617Z,0
2016-05-16T00:42:50.603Z,0
2016-05-16T00:43:50.778Z,0
2016-05-16T00:44:50.733Z,0
2016-05-16T00:45:50.439Z,0
2016-05-16T00:46:50.692Z,0
2016-05-16T00:47:50.680Z,0
2016-05-16T00:48:50.525Z,0
2016-05-16T00:49:51.044Z,0
2016-05-16T00:50:50.500Z,0
2016-05-16T00:51:50.643Z,0
2016-05-16T00:52:50.615Z,0
2016-05-16T00:53:50.446Z,0
2016-05-16T00:54:50.589Z,0
2016-05-16T00:55:50.263Z,0
2016-05-16T00:56:50.547Z,0
2016-05-16T00:57:50.535Z,0
2016-05-16T00:58:50.382Z,0
2016-05-16T00:59:50.508Z,0
2016-05-16T01:00:50.339Z,0
2016-05-16T01:01:50.482Z,0
2016-05-16T01:02:50.470Z,0
2016-05-16T01:03:50.441Z,0
2016-05-16T01:04:50.303Z,0
2016-05-16T01:05:50.431Z,0
2016-05-16T01:06:50.261Z,0
2016-05-16T01:07:50.406Z,0
2016-05-16T01:08:50.392Z,0
2016-05-16T01:09:50.379Z,0
2016-05-16T01:10:50.351Z,0
2016-05-16T01:11:50.181Z,0
2016-05-16T01:12:50.169Z,0
2016-05-16T01:13:50.297Z,0
2016-05-16T01:14:50.284Z,0
2016-05-16T01:15:50.270Z,0
2016-05-16T01:16:50.257Z,0
2016-05-16T01:17:50.244Z,0
2016-05-16T01:18:50.231Z,0
2016-05-16T01:19:50.469Z,0
2016-05-16T01:20:50.206Z,0
2016-05-16T01:21:49.724Z,0
2016-05-16T01:22:50.163Z,0
2016-05-16T01:23:50.152Z,0
2016-05-16T01:24:50.139Z,0
2016-05-16T01:25:50.125Z,0
2016-05-16T01:26:49.956Z,0
2016-05-16T01:27:49.928Z,0
2016-05-16T01:28:52.289Z,0
2016-05-16T01:29:50.011Z,0
2016-05-16T01:30:49.998Z,0
2016-05-16T01:31:49.829Z,0
2016-05-16T01:32:49.973Z,0
2016-05-16T01:33:49.663Z,0
2016-05-16T01:34:50.040Z,0
2016-05-16T01:35:50.183Z,0
2016-05-16T01:36:49.748Z,0
2016-05-16T01:37:49.924Z,0
2016-05-16T01:38:49.567Z,0
2016-05-16T01:39:49.866Z,0
2016-05-16T01:40:49.870Z,0
2016-05-16T01:41:49.825Z,0
2016-05-16T01:42:49.670Z,0
2016-05-16T01:43:49.799Z,0
2016-05-16T01:44:49.786Z,0
2016-05-16T01:45:49.772Z,0
2016-05-16T01:46:49.604Z,0
2016-05-16T01:47:49.731Z,0
2016-05-16T01:48:49.749Z,0
2016-05-16T01:49:49.440Z,0
2016-05-16T01:50:50.614Z,0
2016-05-16T01:51:49.741Z,0
2016-05-16T01:52:49.441Z,0
2016-05-16T01:53:49.625Z,0
2016-05-16T01:54:49.792Z,0
2016-05-16T01:55:49.820Z,0
2016-05-16T01:56:49.828Z,0
2016-05-16T01:57:49.813Z,0
2016-05-16T01:58:49.831Z,0
2016-05-16T01:59:49.817Z,0
2016-05-16T02:00:49.834Z,0
2016-05-16T02:01:49.829Z,0
2016-05-16T02:02:49.806Z,0
2016-05-16T02:03:49.799Z,0
2016-05-16T02:04:49.916Z,0
2016-05-16T02:05:49.783Z,0
2016-05-16T02:06:49.773Z,0
2016-05-16T02:07:49.747Z,0
2016-05-16T02:08:49.735Z,0
2016-05-16T02:09:49.568Z,0
2016-05-16T02:10:49.714Z,0
2016-05-16T02:11:49.390Z,0
2016-05-16T02:12:49.689Z,0
2016-05-16T02:13:49.505Z,0
2016-05-16T02:14:49.181Z,0
2016-05-16T02:15:49.637Z,0
2016-05-16T02:16:49.452Z,0
2016-05-16T02:17:49.626Z,0
2016-05-16T02:18:49.583Z,0
2016-05-16T02:19:49.570Z,0
2016-05-16T02:20:49.619Z,0
2016-05-16T02:21:49.232Z,0
2016-05-16T02:22:49.234Z,0
2016-05-16T02:23:49.361Z,0
2016-05-16T02:24:49.349Z,0
2016-05-16T02:25:49.492Z,0
2016-05-16T02:26:49.308Z,0
2016-05-16T02:27:49.325Z,0
2016-05-16T02:28:49.438Z,0
2016-05-16T02:29:49.425Z,0
2016-05-16T02:30:49.256Z,0
2016-05-16T02:31:49.383Z,0
2016-05-16T02:32:49.386Z,0
2016-05-16T02:33:49.372Z,0
2016-05-16T02:34:49.345Z,0
2016-05-16T02:35:49.894Z,0
2016-05-16T02:36:49.319Z,0
2016-05-16T02:37:49.305Z,0
2016-05-16T02:38:49.136Z,0
2016-05-16T02:39:49.280Z,0
2016-05-16T02:40:49.252Z,0
2016-05-16T02:41:49.238Z,0
2016-05-16T02:42:49.068Z,0
2016-05-16T02:43:49.212Z,0
2016-05-16T02:44:49.215Z,0
2016-05-16T02:45:49.187Z,0
2016-05-16T02:46:49.173Z,0
2016-05-16T02:47:48.865Z,0
2016-05-16T02:48:48.992Z,0
2016-05-16T02:49:49.120Z,0
2016-05-16T02:50:49.418Z,0
2016-05-16T02:51:48.968Z,0
2016-05-16T02:52:48.923Z,0
2016-05-16T02:53:49.068Z,0
2016-05-16T02:54:48.742Z,0
2016-05-16T02:55:48.886Z,0
2016-05-16T02:56:49.028Z,0
2016-05-16T02:57:48.859Z,0
2016-05-16T02:58:49.003Z,0
2016-05-16T02:59:48.975Z,0
2016-05-16T03:00:48.961Z,0
2016-05-16T03:01:48.792Z,0
2016-05-16T03:02:48.780Z,0
2016-05-16T03:03:48.766Z,0
2016-05-16T03:04:48.894Z,0
2016-05-16T03:05:48.583Z,0
2016-05-16T03:06:48.868Z,0
2016-05-16T03:07:48.855Z,0
2016-05-16T03:08:48.686Z,0
2016-05-16T03:09:48.829Z,0
2016-05-16T03:10:48.801Z,0
2016-05-16T03:11:48.819Z,0
2016-05-16T03:12:48.775Z,0
2016-05-16T03:13:48.605Z,0
2016-05-16T03:14:48.593Z,0
2016-05-16T03:15:48.720Z,0
2016-05-16T03:16:48.738Z,0
2016-05-16T03:17:48.554Z,0
2016-05-16T03:18:48.698Z,0
2016-05-16T03:19:48.512Z,0
2016-05-16T03:20:48.703Z,0
2016-05-16T03:21:48.643Z,0
2016-05-16T03:22:48.489Z,0
2016-05-16T03:23:48.304Z,0
2016-05-16T03:24:48.604Z,0
2016-05-16T03:25:48.420Z,0
2016-05-16T03:26:48.562Z,0
2016-05-16T03:27:48.550Z,0
2016-05-16T03:28:48.536Z,0
2016-05-16T03:29:48.523Z,0
2016-05-16T03:30:48.355Z,0
2016-05-16T03:31:48.483Z,0
2016-05-16T03:32:48.172Z,0
2016-05-16T03:33:48.316Z,5
2016-05-16T03:34:48.459Z,5
2016-05-16T03:35:48.946Z,5
2016-05-16T03:36:48.417Z,5
2016-05-16T03:37:48.405Z,5
2016-05-16T03:38:48.079Z,5
2016-05-16T03:39:48.238Z,5
2016-05-16T03:40:48.350Z,5
2016-05-16T03:41:48.337Z,10
2016-05-16T03:42:48.027Z,10
2016-05-16T03:43:48.311Z,10
2016-05-16T03:44:48.299Z,15
2016-05-16T03:45:48.270Z,15
2016-05-16T03:46:48.273Z,15
2016-05-16T03:47:48.260Z,20
2016-05-16T03:48:48.074Z,20
2016-05-16T03:49:48.077Z,20
2016-05-16T03:50:48.315Z,25
2016-05-16T03:51:48.192Z,25
2016-05-16T03:52:48.179Z,25
2016-05-16T03:53:48.010Z,30
2016-05-16T03:54:48.137Z,35
2016-05-16T03:55:47.984Z,35
2016-05-16T03:56:48.112Z,40
2016-05-16T03:57:48.115Z,40
2016-05-16T03:58:48.101Z,45
2016-05-16T03:59:48.089Z,45
2016-05-16T04:00:48.060Z,50
2016-05-16T04:01:48.047Z,50
2016-05-16T04:02:48.050Z,50
2016-05-16T04:03:47.850Z,55
2016-05-16T04:04:48.008Z,60
2016-05-16T04:05:48.824Z,60
2016-05-16T04:06:47.827Z,65
2016-05-16T04:07:47.970Z,70
2016-05-16T04:08:47.957Z,70
2016-05-16T04:09:47.928Z,80
2016-05-16T04:10:47.758Z,85
2016-05-16T04:11:47.574Z,85
2016-05-16T04:12:47.889Z,90
2016-05-16T04:13:47.876Z,90
2016-05-16T04:14:47.707Z,95
2016-05-16T04:15:47.835Z,95
2016-05-16T04:16:47.822Z,95
2016-05-16T04:17:47.824Z,95
2016-05-16T04:18:47.780Z,100
2016-05-16T04:19:47.626Z,105
2016-05-16T04:20:48.020Z,105
2016-05-16T04:21:47.585Z,110
2016-05-16T04:22:47.745Z,115
2016-05-16T04:23:47.747Z,120
2016-05-16T04:24:47.718Z,120
2016-05-16T04:25:47.690Z,125
2016-05-16T04:26:47.520Z,130
2016-05-16T04:27:47.508Z,130
2016-05-16T04:28:47.495Z,135
2016-05-16T04:29:47.639Z,135
2016-05-16T04:30:47.625Z,135
2016-05-16T04:31:47.472Z,140
2016-05-16T04:32:47.583Z,140
2016-05-16T04:33:47.586Z,145
2016-05-16T04:34:47.417Z,150
2016-05-16T04:35:47.233Z,155
2016-05-16T04:36:47.360Z,155
2016-05-16T04:37:47.519Z,155
2016-05-16T04:38:47.491Z,165
2016-05-16T04:39:47.478Z,170
2016-05-16T04:40:47.308Z,170
2016-05-16T04:41:47.467Z,170
2016-05-16T04:42:47.439Z,175
2016-05-16T04:43:47.254Z,175
2016-05-16T04:44:47.100Z,175
2016-05-16T04:45:47.243Z,180
2016-05-16T04:46:47.371Z,185
2016-05-16T04:47:47.358Z,195
2016-05-16T04:48:47.205Z,260
2016-05-16T04:49:47.348Z,250
2016-05-16T04:50:47.023Z,245
2016-05-16T04:51:47.150Z,270
2016-05-16T04:52:47.294Z,305
2016-05-16T04:53:47.281Z,315
2016-05-16T04:54:47.268Z,330
2016-05-16T04:55:47.270Z,340
2016-05-16T04:56:47.086Z,345
2016-05-16T04:57:47.073Z,355
2016-05-16T04:58:47.231Z,365
2016-05-16T04:59:47.219Z,375
2016-05-16T05:00:47.190Z,385
2016-05-16T05:01:47.193Z,395
2016-05-16T05:02:47.195Z,405
2016-05-16T05:03:47.198Z,420
2016-05-16T05:04:47.169Z,410
2016-05-16T05:05:48.360Z,370
2016-05-16T05:06:47.003Z,385
2016-05-16T05:07:47.006Z,455
2016-05-16T05:08:46.993Z,470
2016-05-16T05:09:47.152Z,480
2016-05-16T05:10:46.983Z,490
2016-05-16T05:11:46.969Z,495
2016-05-16T05:12:47.113Z,510
2016-05-16T05:13:47.132Z,510
2016-05-16T05:14:47.135Z,515
2016-05-16T05:15:46.981Z,475
2016-05-16T05:16:46.811Z,390
2016-05-16T05:17:47.110Z,330
2016-05-16T05:18:46.941Z,380
2016-05-16T05:19:46.804Z,470
2016-05-16T05:20:47.479Z,545
2016-05-16T05:21:47.106Z,565
2016-05-16T05:22:46.781Z,580
2016-05-16T05:23:47.079Z,600
2016-05-16T05:24:46.943Z,625
2016-05-16T05:25:47.085Z,630
2016-05-16T05:26:46.917Z,645
2016-05-16T05:27:47.090Z,655
2016-05-16T05:28:46.922Z,655
2016-05-16T05:29:47.065Z,560
2016-05-16T05:30:46.911Z,440
2016-05-16T05:31:47.070Z,415
2016-05-16T05:32:47.058Z,510
2016-05-16T05:33:46.904Z,580
2016-05-16T05:34:47.079Z,645
2016-05-16T05:35:47.316Z,685
2016-05-16T05:36:46.896Z,660
2016-05-16T05:37:47.056Z,645
2016-05-16T05:38:47.058Z,460
2016-05-16T05:39:47.045Z,410
2016-05-16T05:40:47.032Z,540
2016-05-16T05:41:46.878Z,465
2016-05-16T05:42:46.880Z,640
2016-05-16T05:43:46.869Z,425
2016-05-16T05:44:46.855Z,400
2016-05-16T05:45:46.858Z,425
2016-05-16T05:46:47.016Z,455
2016-05-16T05:47:46.833Z,560
2016-05-16T05:48:46.990Z,445
2016-05-16T05:49:46.682Z,430
2016-05-16T05:50:47.527Z,420
2016-05-16T05:51:46.843Z,415
2016-05-16T05:52:46.814Z,450
2016-05-16T05:53:46.802Z,595
2016-05-16T05:54:46.960Z,620
2016-05-16T05:55:46.791Z,475
2016-05-16T05:56:46.935Z,480
2016-05-16T05:57:46.937Z,475
2016-05-16T05:58:46.768Z,550
2016-05-16T05:59:46.911Z,560
2016-05-16T06:00:46.742Z,460
2016-05-16T06:01:46.729Z,455
2016-05-16T06:02:46.889Z,465
2016-05-16T06:03:46.875Z,535
2016-05-16T06:04:46.862Z,740
2016-05-16T06:05:46.959Z,710
2016-05-16T06:06:46.680Z,855
2016-05-16T06:07:46.839Z,1160
2016-05-16T06:08:46.670Z,1295
2016-05-16T06:09:46.672Z,1300
2016-05-16T06:10:46.816Z,980
2016-05-16T06:11:46.646Z,740
2016-05-16T06:12:46.806Z,730
2016-05-16T06:13:46.793Z,785
2016-05-16T06:14:46.780Z,1225
2016-05-16T06:15:46.641Z,850
2016-05-16T06:16:46.769Z,905
2016-05-16T06:17:46.615Z,870
2016-05-16T06:18:46.774Z,865
2016-05-16T06:19:46.606Z,885
2016-05-16T06:20:46.983Z,870
2016-05-16T06:21:46.768Z,850
2016-05-16T06:22:46.582Z,835
2016-05-16T06:23:46.726Z,870
2016-05-16T06:24:46.401Z,805
2016-05-16T06:25:46.700Z,800
2016-05-16T06:26:46.546Z,760
2016-05-16T06:27:46.721Z,735
2016-05-16T06:28:46.723Z,705
2016-05-16T06:29:46.664Z,675
2016-05-16T06:30:46.510Z,645
2016-05-16T06:31:46.653Z,620
2016-05-16T06:32:46.485Z,605
2016-05-16T06:33:46.486Z,600
2016-05-16T06:34:46.475Z,595
2016-05-16T06:35:47.009Z,590
2016-05-16T06:36:46.448Z,600
2016-05-16T06:37:46.592Z,605
2016-05-16T06:38:46.422Z,615
2016-05-16T06:39:46.597Z,625
2016-05-16T06:40:46.412Z,635
2016-05-16T06:41:46.384Z,645
2016-05-16T06:42:46.542Z,645
2016-05-16T06:43:46.530Z,645
2016-05-16T06:44:46.516Z,645
2016-05-16T06:45:46.535Z,640
2016-05-16T06:46:46.350Z,640
2016-05-16T06:47:46.478Z,630
2016-05-16T06:48:46.466Z,615
2016-05-16T06:49:46.311Z,610
2016-05-16T06:50:46.814Z,605
2016-05-16T06:51:46.474Z,615
2016-05-16T06:52:46.429Z,620
2016-05-16T06:53:46.401Z,615
2016-05-16T06:54:46.246Z,615
2016-05-16T06:55:46.374Z,600
2016-05-16T06:56:46.393Z,605
2016-05-16T06:57:46.068Z,605
2016-05-16T06:58:46.195Z,620
2016-05-16T06:59:46.417Z,640
2016-05-16T07:00:46.356Z,670
2016-05-16T07:01:46.875Z,700
2016-05-16T07:02:46.315Z,735
2016-05-16T07:03:46.177Z,760
2016-05-16T07:04:46.274Z,780
2016-05-16T07:05:46.120Z,800
2016-05-16T07:06:46.263Z,820
2016-05-16T07:07:46.251Z,840
2016-05-16T07:08:46.081Z,875
2016-05-16T07:09:46.100Z,905
2016-05-16T07:10:46.196Z,945
2016-05-16T07:11:46.058Z,1025
2016-05-16T07:12:46.186Z,1040
2016-05-16T07:13:46.173Z,1185
2016-05-16T07:14:46.160Z,1150
2016-05-16T07:15:46.022Z,1225
2016-05-16T07:16:46.134Z,1235
2016-05-16T07:17:46.136Z,1250
2016-05-16T07:18:45.968Z,1285
2016-05-16T07:19:45.954Z,1280
2016-05-16T07:20:46.176Z,1245
2016-05-16T07:21:46.101Z,1220
2016-05-16T07:22:46.072Z,1205
2016-05-16T07:23:45.919Z,1155
2016-05-16T07:24:45.905Z,1100
2016-05-16T07:25:46.049Z,1055
2016-05-16T07:26:46.051Z,1015
2016-05-16T07:27:46.038Z,990
2016-05-16T07:28:45.854Z,965
2016-05-16T07:29:46.012Z,940
2016-05-16T07:30:45.688Z,915
2016-05-16T07:31:45.987Z,875
2016-05-16T07:32:45.833Z,835
2016-05-16T07:33:45.992Z,790
2016-05-16T07:34:45.948Z,760
2016-05-16T07:35:45.685Z,735
2016-05-16T07:36:45.937Z,700
2016-05-16T07:37:45.753Z,695
2016-05-16T07:38:45.740Z,705
2016-05-16T07:39:45.743Z,715
2016-05-16T07:40:45.731Z,740
2016-05-16T07:41:45.872Z,755
2016-05-16T07:42:45.720Z,765
2016-05-16T07:43:45.847Z,760
2016-05-16T07:44:45.866Z,765
2016-05-16T07:45:45.680Z,780
2016-05-16T07:46:45.808Z,800
2016-05-16T07:47:45.826Z,835
2016-05-16T07:48:45.641Z,870
2016-05-16T07:49:45.786Z,895
2016-05-16T07:50:46.194Z,915
2016-05-16T07:51:45.760Z,930
2016-05-16T07:52:45.746Z,940
2016-05-16T07:53:45.749Z,955
2016-05-16T07:54:45.736Z,970
2016-05-16T07:55:45.707Z,990
2016-05-16T07:56:45.554Z,1000
2016-05-16T07:57:45.540Z,1000
2016-05-16T07:58:45.685Z,1015
2016-05-16T07:59:45.672Z,1035
2016-05-16T08:00:45.643Z,1060
2016-05-16T08:01:45.490Z,1070
2016-05-16T08:02:45.632Z,1065
2016-05-16T08:03:45.464Z,1055
2016-05-16T08:04:45.466Z,1055
2016-05-16T08:05:45.719Z,1065
2016-05-16T08:06:45.597Z,1080
2016-05-16T08:07:45.428Z,1095
2016-05-16T08:08:45.570Z,1135
2016-05-16T08:09:45.401Z,1175
2016-05-16T08:10:45.545Z,1225
2016-05-16T08:11:45.375Z,1280
2016-05-16T08:12:45.347Z,1300
2016-05-16T08:13:45.349Z,1295
2016-05-16T08:14:45.509Z,1275
2016-05-16T08:15:45.497Z,1245
2016-05-16T08:16:45.327Z,1205
2016-05-16T08:17:45.470Z,1200
2016-05-16T08:18:45.300Z,1225
2016-05-16T08:19:45.428Z,1260
2016-05-16T08:20:54.572Z,1325
2016-05-16T08:21:46.793Z,1395
2016-05-16T08:23:15.124Z,1450
2016-05-16T08:23:45.252Z,1470
2016-05-16T08:24:45.396Z,1470
2016-05-16T08:25:45.382Z,1440
2016-05-16T08:26:45.213Z,1405
2016-05-16T08:27:45.356Z,1360
2016-05-16T08:28:45.202Z,1325
2016-05-16T08:29:45.345Z,1325
2016-05-16T08:30:45.176Z,1390
2016-05-16T08:31:45.321Z,1440
2016-05-16T08:32:45.323Z,1450
2016-05-16T08:33:45.154Z,1415
2016-05-16T08:34:45.125Z,1360
2016-05-16T08:35:45.503Z,1370
2016-05-16T08:36:45.287Z,1395
2016-05-16T08:37:45.273Z,1405
2016-05-16T08:38:45.104Z,1430
2016-05-16T08:39:45.107Z,1495
2016-05-16T08:40:45.234Z,1595
2016-05-16T08:41:45.222Z,1710
2016-05-16T08:42:45.225Z,1820
2016-05-16T08:43:44.899Z,2205
2016-05-16T08:44:45.043Z,1950
2016-05-16T08:45:45.029Z,2015
2016-05-16T08:46:45.204Z,2145
2016-05-16T08:47:45.192Z,2145
2016-05-16T08:48:45.178Z,2120
2016-05-16T08:49:45.166Z,2250
2016-05-16T08:50:45.465Z,2260
2016-05-16T08:51:44.858Z,2220
2016-05-16T08:52:45.158Z,2250
2016-05-16T08:53:44.832Z,2240
2016-05-16T08:54:45.163Z,2115
2016-05-16T08:55:45.135Z,1985
2016-05-16T08:56:44.966Z,1830
2016-05-16T08:57:45.109Z,1630
2016-05-16T08:58:44.971Z,1495
2016-05-16T08:59:45.098Z,1450
2016-05-16T09:00:44.929Z,1495
2016-05-16T09:01:45.087Z,1545
2016-05-16T09:02:45.075Z,1660
2016-05-16T09:03:45.079Z,1765
2016-05-16T09:04:45.065Z,1990
2016-05-16T09:05:45.302Z,1875
2016-05-16T09:06:44.898Z,1750
2016-05-16T09:07:45.042Z,1605
2016-05-16T09:08:45.045Z,1570
2016-05-16T09:09:44.875Z,1485
2016-05-16T09:10:45.019Z,1550
2016-05-16T09:11:45.006Z,1635
2016-05-16T09:12:45.025Z,1845
2016-05-16T09:13:45.011Z,1710
2016-05-16T09:14:45.014Z,1720
2016-05-16T09:15:44.985Z,1760
2016-05-16T09:16:44.831Z,1790
2016-05-16T09:17:44.990Z,1665
2016-05-16T09:18:44.961Z,1815
2016-05-16T09:19:44.981Z,1885
2016-05-16T09:20:45.702Z,2535
2016-05-16T09:21:44.955Z,2815
2016-05-16T09:22:44.941Z,3140
2016-05-16T09:23:44.929Z,4025
2016-05-16T09:24:44.775Z,2960
2016-05-16T09:25:44.778Z,3885
2016-05-16T09:26:44.765Z,4035
2016-05-16T09:27:44.768Z,3995
2016-05-16T09:28:44.755Z,3465
2016-05-16T09:29:44.898Z,3915
2016-05-16T09:30:44.901Z,3800
2016-05-16T09:31:44.746Z,3870
2016-05-16T09:32:44.593Z,3855
2016-05-16T09:33:44.893Z,2635
2016-05-16T09:34:44.755Z,3835
2016-05-16T09:35:45.337Z,3315
2016-05-16T09:36:44.729Z,3780
2016-05-16T09:37:44.732Z,3820
2016-05-16T09:38:44.719Z,3785
2016-05-16T09:39:44.565Z,3755
2016-05-16T09:40:44.865Z,3725
2016-05-16T09:41:44.867Z,3770
2016-05-16T09:42:44.558Z,3785
2016-05-16T09:43:44.701Z,3780
2016-05-16T09:44:44.861Z,3785
2016-05-16T09:45:44.394Z,3855
2016-05-16T09:46:44.866Z,3165
2016-05-16T09:47:44.868Z,2485
2016-05-16T09:48:44.699Z,2490
2016-05-16T09:49:44.842Z,1765
2016-05-16T09:50:44.751Z,1705
2016-05-16T09:51:44.864Z,1445
2016-05-16T09:52:44.678Z,1630
2016-05-16T09:53:44.838Z,1865
2016-05-16T09:54:44.871Z,1945
2016-05-16T09:55:44.843Z,3350
2016-05-16T09:56:44.674Z,2485
2016-05-16T09:57:44.833Z,1485
2016-05-16T09:58:44.664Z,1345
2016-05-16T09:59:44.510Z,1325
2016-05-16T10:00:44.810Z,1485
2016-05-16T10:01:44.812Z,2815
2016-05-16T10:02:44.659Z,2345
2016-05-16T10:03:44.645Z,4235
2016-05-16T10:04:44.835Z,4825
2016-05-16T10:05:45.057Z,1995
2016-05-16T10:06:44.795Z,4805
2016-05-16T10:07:44.782Z,2175
2016-05-16T10:08:44.768Z,1440
2016-05-16T10:09:44.771Z,1245
2016-05-16T10:10:44.633Z,1245
2016-05-16T10:11:44.761Z,1340
2016-05-16T10:12:44.764Z,1515
2016-05-16T10:13:45.485Z,4530
2016-05-16T10:14:47.442Z,1740
2016-05-16T10:15:44.600Z,4415
2016-05-16T10:16:44.587Z,4385
2016-05-16T10:17:44.464Z,4445
2016-05-16T10:18:44.748Z,1710
2016-05-16T10:19:44.594Z,4630
2016-05-16T10:20:44.801Z,4640
2016-05-16T10:21:44.569Z,1725
2016-05-16T10:22:44.728Z,2410
2016-05-16T10:23:44.747Z,4380
2016-05-16T10:24:44.718Z,2280
2016-05-16T10:25:44.721Z,4100
2016-05-16T10:26:44.707Z,3295
2016-05-16T10:27:44.710Z,1160
2016-05-16T10:28:44.557Z,1095
2016-05-16T10:29:44.716Z,1070
2016-05-16T10:30:44.703Z,1115
2016-05-16T10:31:44.549Z,1200
2016-05-16T10:32:44.708Z,3020
2016-05-16T10:33:44.523Z,4555
2016-05-16T10:34:44.698Z,4525
2016-05-16T10:35:45.465Z,2590
2016-05-16T10:36:44.532Z,4685
2016-05-16T10:37:44.518Z,4770
2016-05-16T10:38:44.676Z,1650
2016-05-16T10:39:44.368Z,1485
2016-05-16T10:40:44.683Z,1435
2016-05-16T10:41:44.357Z,1345
2016-05-16T10:42:44.501Z,1315
2016-05-16T10:43:44.659Z,1345
2016-05-16T10:44:44.662Z,1405
2016-05-16T10:45:44.649Z,1435
2016-05-16T10:46:44.480Z,1460
2016-05-16T10:47:44.655Z,1480
2016-05-16T10:48:44.329Z,1495
2016-05-16T10:49:44.644Z,1505
2016-05-16T10:50:44.850Z,1515
2016-05-16T10:51:44.477Z,1520
2016-05-16T10:52:44.606Z,1540
2016-05-16T10:53:44.624Z,1675
2016-05-16T10:54:44.299Z,1810
2016-05-16T10:55:44.614Z,1800
2016-05-16T10:56:44.600Z,1950
2016-05-16T10:57:44.643Z,1960
2016-05-16T10:58:44.678Z,2575
2016-05-16T10:59:44.571Z,3200
2016-05-16T11:00:44.761Z,3560
2016-05-16T11:01:44.826Z,2885
2016-05-16T11:02:44.662Z,2970
2016-05-16T11:03:44.823Z,3245
2016-05-16T11:04:44.858Z,2990
2016-05-16T11:05:47.096Z,2935
2016-05-16T11:06:44.866Z,2750
2016-05-16T11:07:44.719Z,2725
2016-05-16T11:08:44.884Z,2665
2016-05-16T11:09:44.720Z,2790
2016-05-16T11:10:44.870Z,1960
2016-05-16T11:11:44.879Z,1755
2016-05-16T11:12:44.884Z,1440
2016-05-16T11:13:44.872Z,1280
2016-05-16T11:14:44.878Z,1165
2016-05-16T11:15:44.726Z,1045
2016-05-16T11:16:44.717Z,960
2016-05-16T11:17:44.860Z,895
2016-05-16T11:18:44.707Z,850
2016-05-16T11:19:44.853Z,810
2016-05-16T11:20:45.386Z,795
2016-05-16T11:21:44.843Z,790
2016-05-16T11:22:44.831Z,805
2016-05-16T11:23:44.943Z,845
2016-05-16T11:24:44.853Z,900
2016-05-16T11:25:44.839Z,945
2016-05-16T11:26:44.670Z,1000
2016-05-16T11:27:44.814Z,1055
2016-05-16T11:28:44.661Z,1100
2016-05-16T11:29:44.647Z,1135
2016-05-16T11:30:44.792Z,1175
2016-05-16T11:31:44.778Z,1215
2016-05-16T11:32:44.781Z,1260
2016-05-16T11:33:44.753Z,1300
2016-05-16T11:34:44.599Z,1330
2016-05-16T11:35:45.117Z,1355
2016-05-16T11:36:44.744Z,1390
2016-05-16T11:37:44.591Z,1435
2016-05-16T11:38:44.750Z,1520
2016-05-16T11:39:44.722Z,1615
2016-05-16T11:40:44.708Z,1695
2016-05-16T11:41:44.711Z,1795
2016-05-16T11:42:44.385Z,1855
2016-05-16T11:43:44.529Z,1900
2016-05-16T11:44:44.516Z,1935
2016-05-16T11:45:44.518Z,1965
2016-05-16T11:46:44.663Z,1985
2016-05-16T11:47:44.649Z,1980
2016-05-16T11:48:44.637Z,1960
2016-05-16T11:49:44.655Z,1860
2016-05-16T11:50:44.626Z,1755
2016-05-16T11:51:45.098Z,1630
2016-05-16T11:52:44.475Z,1535
2016-05-16T11:53:44.478Z,1465
2016-05-16T11:54:44.606Z,1410
2016-05-16T11:55:44.609Z,1380
2016-05-16T11:56:44.595Z,1365
2016-05-16T11:57:44.442Z,1360
2016-05-16T11:58:44.585Z,1350
2016-05-16T11:59:44.589Z,1325
2016-05-16T12:00:44.778Z,1295
2016-05-16T12:01:44.281Z,1265
2016-05-16T12:02:44.393Z,1235
2016-05-16T12:03:44.552Z,1215
2016-05-16T12:04:44.398Z,1190
2016-05-16T12:05:44.619Z,1175
2016-05-16T12:06:44.528Z,1160
2016-05-16T12:07:44.375Z,1135
2016-05-16T12:08:44.534Z,1115
2016-05-16T12:09:44.365Z,1080
2016-05-16T12:10:44.352Z,1030
2016-05-16T12:11:44.496Z,1000
2016-05-16T12:12:44.169Z,1000
2016-05-16T12:13:44.485Z,1025
2016-05-16T12:14:44.332Z,1085
2016-05-16T12:15:44.460Z,1165
2016-05-16T12:16:44.477Z,1205
2016-05-16T12:17:44.465Z,1210
2016-05-16T12:18:44.295Z,1205
2016-05-16T12:19:44.438Z,1220
2016-05-16T12:20:44.425Z,1255
2016-05-16T12:21:44.272Z,1290
2016-05-16T12:22:44.416Z,1330
2016-05-16T12:23:44.403Z,1365
2016-05-16T12:24:44.249Z,1395
2016-05-16T12:25:44.392Z,1430
2016-05-16T12:26:44.395Z,1510
2016-05-16T12:27:44.382Z,1575
2016-05-16T12:28:44.244Z,1685
2016-05-16T12:29:44.403Z,1795
2016-05-16T12:30:44.218Z,1800
2016-05-16T12:31:44.362Z,1845
2016-05-16T12:32:44.067Z,1900
2016-05-16T12:33:44.039Z,1895
2016-05-16T12:34:44.182Z,1855
2016-05-16T12:35:44.060Z,1930
2016-05-16T12:36:44.327Z,2210
2016-05-16T12:37:44.175Z,2990
2016-05-16T12:38:44.319Z,4925
2016-05-16T12:39:44.149Z,1880
2016-05-16T12:40:44.152Z,1745
2016-05-16T12:41:44.294Z,1705
2016-05-16T12:42:44.297Z,1710
2016-05-16T12:43:44.299Z,1570
2016-05-16T12:44:44.130Z,1460
2016-05-16T12:45:44.274Z,1415
2016-05-16T12:46:44.277Z,1350
2016-05-16T12:47:44.123Z,1295
2016-05-16T12:48:44.110Z,1235
2016-05-16T12:49:44.254Z,1205
2016-05-16T12:50:44.365Z,1235
2016-05-16T12:51:44.088Z,1260
2016-05-16T12:52:44.230Z,1295
2016-05-16T12:53:44.234Z,1260
2016-05-16T12:54:44.237Z,1250
2016-05-16T12:55:44.051Z,1220
2016-05-16T12:56:44.209Z,1180
2016-05-16T12:57:44.212Z,1140
2016-05-16T12:58:44.215Z,1100
2016-05-16T12:59:44.187Z,1060
2016-05-16T13:00:43.909Z,1015
2016-05-16T13:01:44.176Z,990
2016-05-16T13:02:44.179Z,980
2016-05-16T13:03:44.166Z,980
2016-05-16T13:04:44.013Z,980
2016-05-16T13:05:44.359Z,970
2016-05-16T13:06:44.159Z,955
2016-05-16T13:07:43.989Z,945
2016-05-16T13:08:44.133Z,935
2016-05-16T13:09:44.136Z,935
2016-05-16T13:10:43.966Z,935
2016-05-16T13:11:43.953Z,935
2016-05-16T13:12:43.799Z,935
2016-05-16T13:13:44.099Z,940
2016-05-16T13:14:43.961Z,945
2016-05-16T13:15:44.105Z,950
2016-05-16T13:16:43.921Z,935
2016-05-16T13:17:44.063Z,935
2016-05-16T13:18:44.051Z,905
2016-05-16T13:19:44.068Z,895
2016-05-16T13:20:44.149Z,885
2016-05-16T13:21:44.027Z,885
2016-05-16T13:22:44.015Z,890
2016-05-16T13:23:43.704Z,900
2016-05-16T13:24:44.020Z,920
2016-05-16T13:25:43.991Z,950
2016-05-16T13:26:43.822Z,970
2016-05-16T13:27:43.996Z,1020
2016-05-16T13:28:43.811Z,1055
2016-05-16T13:29:43.799Z,1080
2016-05-16T13:30:43.958Z,1115
2016-05-16T13:31:43.789Z,1150
2016-05-16T13:32:43.931Z,1190
2016-05-16T13:33:43.934Z,1225
2016-05-16T13:34:43.922Z,1260
2016-05-16T13:35:44.236Z,1310
2016-05-16T13:36:43.302Z,1360
2016-05-16T13:37:43.883Z,1450
2016-05-16T13:38:43.901Z,1545
2016-05-16T13:39:43.888Z,1630
2016-05-16T13:40:43.860Z,1770
2016-05-16T13:41:43.863Z,1805
2016-05-16T13:42:43.866Z,4465
2016-05-16T13:43:43.852Z,2615
2016-05-16T13:44:43.839Z,2010
2016-05-16T13:45:43.858Z,1885
2016-05-16T13:46:43.829Z,1980
2016-05-16T13:47:43.815Z,2430
2016-05-16T13:48:43.849Z,2220
2016-05-16T13:49:43.791Z,2010
2016-05-16T13:50:43.965Z,2935